createdAt,value
2019-06-10T00:00:01.000Z,19.625
2019-06-10T00:04:02.000Z,19.562
2019-06-10T00:05:02.000Z,19.5
2019-06-10T00:06:02.000Z,19.5
2019-06-10T00:07:02.000Z,19.437
2019-06-10T00:08:02.000Z,19.437
2019-06-10T00:18:02.000Z,19.312
2019-06-10T00:19:01.000Z,19.125
2019-06-10T00:22:01.000Z,18.687
2019-06-10T00:23:01.000Z,18.5
2019-06-10T00:24:01.000Z,18.437
2019-06-10T00:25:02.000Z,18.312
2019-06-10T00:26:01.000Z,18.187
2019-06-10T00:27:02.000Z,18.125
2019-06-10T00:28:01.000Z,18.062
2019-06-10T00:29:02.000Z,18
2019-06-10T00:30:01.000Z,17.937
2019-06-10T00:31:02.000Z,17.812
2019-06-10T00:32:01.000Z,17.687
2019-06-10T00:32:01.000Z,17.687
2019-06-10T00:33:02.000Z,17.5
2019-06-10T00:34:01.000Z,17.312
2019-06-10T00:35:02.000Z,17.312
2019-06-10T00:36:01.000Z,17
2019-06-10T00:37:02.000Z,16.812
2019-06-10T00:38:02.000Z,16.625
2019-06-10T00:39:01.000Z,16.5
2019-06-10T00:40:01.000Z,16.437
2019-06-10T00:42:01.000Z,16.25
2019-06-10T00:42:01.000Z,16.25
2019-06-10T00:43:01.000Z,16.187
2019-06-10T00:44:01.000Z,16.062
2019-06-10T00:45:01.000Z,15.937
2019-06-10T00:46:01.000Z,15.875
2019-06-10T00:47:02.000Z,15.875
2019-06-10T00:48:01.000Z,15.812
2019-06-10T00:49:01.000Z,15.687
2019-06-10T00:50:02.000Z,15.687
2019-06-10T00:51:01.000Z,15.625
2019-06-10T00:51:01.000Z,15.625
2019-06-10T00:52:01.000Z,15.562
2019-06-10T00:53:02.000Z,15.5
2019-06-10T00:54:02.000Z,15.5
2019-06-10T00:55:01.000Z,15.5
2019-06-10T00:56:01.000Z,15.437
2019-06-10T00:57:01.000Z,15.375
2019-06-10T00:58:02.000Z,15.375
2019-06-10T00:59:01.000Z,15.375
2019-06-10T01:00:01.000Z,15.375
2019-06-10T01:01:01.000Z,15.375
2019-06-10T01:02:02.000Z,15.375
2019-06-10T01:03:02.000Z,15.375
2019-06-10T01:04:02.000Z,15.437
2019-06-10T01:05:02.000Z,15.437
2019-06-10T01:05:02.000Z,15.437
2019-06-10T01:06:01.000Z,15.437
2019-06-10T01:07:01.000Z,15.5
2019-06-10T01:08:01.000Z,15.5
2019-06-10T01:09:02.000Z,15.5
2019-06-10T01:10:02.000Z,15.562
2019-06-10T01:11:02.000Z,15.562
2019-06-10T01:12:01.000Z,15.562
2019-06-10T01:13:01.000Z,15.625
2019-06-10T01:14:01.000Z,15.625
2019-06-10T01:15:01.000Z,15.625
2019-06-10T01:16:01.000Z,15.625
2019-06-10T01:17:02.000Z,15.562
2019-06-10T01:18:02.000Z,15.562
2019-06-10T01:18:02.000Z,15.562
2019-06-10T01:19:01.000Z,15.562
2019-06-10T01:20:01.000Z,15.562
2019-06-10T01:21:01.000Z,15.5
2019-06-10T01:22:01.000Z,15.5
2019-06-10T01:23:01.000Z,15.437
2019-06-10T01:24:01.000Z,15.437
2019-06-10T01:25:01.000Z,15.437
2019-06-10T01:26:01.000Z,15.437
2019-06-10T01:27:02.000Z,15.375
2019-06-10T01:28:01.000Z,15.312
2019-06-10T01:29:01.000Z,15.312
2019-06-10T01:30:02.000Z,15.312
2019-06-10T01:31:02.000Z,15.375
2019-06-10T01:31:02.000Z,15.375
2019-06-10T01:32:01.000Z,15.312
2019-06-10T01:33:01.000Z,15.312
2019-06-10T01:33:01.000Z,15.312
2019-06-10T01:34:01.000Z,15.312
2019-06-10T01:34:01.000Z,15.312
2019-06-10T01:35:01.000Z,15.312
2019-06-10T01:35:01.000Z,15.312
2019-06-10T01:36:01.000Z,15.25
2019-06-10T01:36:01.000Z,15.25
2019-06-10T01:37:01.000Z,15.25
2019-06-10T01:37:01.000Z,15.25
2019-06-10T01:38:01.000Z,15.25
2019-06-10T01:38:01.000Z,15.25
2019-06-10T01:39:02.000Z,15.25
2019-06-10T01:40:01.000Z,15.25
2019-06-10T01:41:01.000Z,15.25
2019-06-10T01:42:02.000Z,15.25
2019-06-10T01:43:01.000Z,15.187
2019-06-10T01:44:01.000Z,15.187
2019-06-10T01:45:02.000Z,15.25
2019-06-10T01:46:01.000Z,15.187
2019-06-10T01:46:02.000Z,15.187
2019-06-10T01:47:01.000Z,15.187
2019-06-10T01:48:01.000Z,15.187
2019-06-10T01:49:01.000Z,15.187
2019-06-10T01:50:01.000Z,15.187
2019-06-10T01:51:01.000Z,15.187
2019-06-10T01:52:01.000Z,15.25
2019-06-10T01:53:01.000Z,15.25
2019-06-10T01:54:01.000Z,15.25
2019-06-10T01:55:02.000Z,15.312
2019-06-10T01:56:02.000Z,15.375
2019-06-10T01:57:01.000Z,15.437
2019-06-10T01:58:01.000Z,15.437
2019-06-10T01:59:02.000Z,15.437
2019-06-10T01:59:02.000Z,15.437
2019-06-10T02:00:02.000Z,15.437
2019-06-10T02:01:01.000Z,15.437
2019-06-10T02:02:01.000Z,15.437
2019-06-10T02:03:01.000Z,15.437
2019-06-10T02:04:01.000Z,15.437
2019-06-10T02:05:01.000Z,15.375
2019-06-10T02:06:01.000Z,15.312
2019-06-10T02:07:01.000Z,15.312
2019-06-10T02:08:01.000Z,15.25
2019-06-10T02:09:01.000Z,15.25
2019-06-10T02:10:01.000Z,15.25
2019-06-10T02:11:01.000Z,15.25
2019-06-10T02:12:01.000Z,15.25
2019-06-10T02:12:02.000Z,15.25
2019-06-10T02:13:01.000Z,15.25
2019-06-10T02:14:01.000Z,15.25
2019-06-10T02:15:01.000Z,15.187
2019-06-10T02:16:02.000Z,15.25
2019-06-10T02:17:01.000Z,15.312
2019-06-10T02:18:01.000Z,15.312
2019-06-10T02:19:01.000Z,15.375
2019-06-10T02:20:01.000Z,15.437
2019-06-10T02:21:01.000Z,15.437
2019-06-10T02:22:01.000Z,15.5
2019-06-10T02:23:01.000Z,15.5
2019-06-10T02:24:01.000Z,15.562
2019-06-10T02:25:01.000Z,15.562
2019-06-10T02:25:02.000Z,15.562
2019-06-10T02:26:01.000Z,15.562
2019-06-10T02:27:01.000Z,15.625
2019-06-10T02:28:01.000Z,15.687
2019-06-10T02:29:01.000Z,15.687
2019-06-10T02:30:01.000Z,15.625
2019-06-10T02:31:01.000Z,15.562
2019-06-10T02:32:01.000Z,15.562
2019-06-10T02:33:01.000Z,15.562
2019-06-10T02:34:01.000Z,15.562
2019-06-10T02:35:01.000Z,15.562
2019-06-10T02:36:02.000Z,15.562
2019-06-10T02:37:01.000Z,15.562
2019-06-10T02:37:01.000Z,15.562
2019-06-10T02:38:02.000Z,15.625
2019-06-10T02:39:02.000Z,15.625
2019-06-10T02:40:01.000Z,15.562
2019-06-10T02:41:01.000Z,15.562
2019-06-10T02:42:01.000Z,15.625
2019-06-10T02:43:01.000Z,15.687
2019-06-10T02:44:02.000Z,15.687
2019-06-10T02:45:02.000Z,15.625
2019-06-10T02:46:02.000Z,15.687
2019-06-10T02:47:02.000Z,15.625
2019-06-10T02:47:02.000Z,15.625
2019-06-10T02:48:01.000Z,15.687
2019-06-10T02:49:01.000Z,15.625
2019-06-10T02:50:01.000Z,15.625
2019-06-10T02:51:01.000Z,15.687
2019-06-10T02:52:01.000Z,15.625
2019-06-10T02:53:01.000Z,15.625
2019-06-10T02:54:01.000Z,15.75
2019-06-10T02:55:01.000Z,15.812
2019-06-10T02:56:01.000Z,15.812
2019-06-10T02:56:01.000Z,15.812
2019-06-10T02:57:01.000Z,15.812
2019-06-10T02:58:01.000Z,15.812
2019-06-10T02:59:01.000Z,15.812
2019-06-10T03:00:01.000Z,15.812
2019-06-10T03:01:02.000Z,15.812
2019-06-10T03:02:01.000Z,15.875
2019-06-10T03:03:02.000Z,15.937
2019-06-10T03:04:01.000Z,15.937
2019-06-10T03:05:02.000Z,16
2019-06-10T03:06:01.000Z,16
2019-06-10T03:07:01.000Z,16
2019-06-10T03:08:01.000Z,16.062
2019-06-10T03:09:01.000Z,16.125
2019-06-10T03:10:01.000Z,16.062
2019-06-10T03:10:02.000Z,16.062
2019-06-10T03:11:01.000Z,16.187
2019-06-10T03:12:01.000Z,16.125
2019-06-10T03:13:01.000Z,16.062
2019-06-10T03:14:01.000Z,16
2019-06-10T03:15:01.000Z,16
2019-06-10T03:16:01.000Z,16
2019-06-10T03:17:02.000Z,16
2019-06-10T03:18:02.000Z,15.937
2019-06-10T03:19:02.000Z,15.875
2019-06-10T03:20:02.000Z,15.937
2019-06-10T03:21:02.000Z,15.937
2019-06-10T03:22:01.000Z,15.875
2019-06-10T03:23:01.000Z,15.812
2019-06-10T03:23:02.000Z,15.812
2019-06-10T03:24:01.000Z,15.75
2019-06-10T03:25:01.000Z,15.687
2019-06-10T03:26:01.000Z,15.562
2019-06-10T03:27:01.000Z,15.562
2019-06-10T03:28:01.000Z,15.5
2019-06-10T03:29:01.000Z,15.437
2019-06-10T03:30:01.000Z,15.375
2019-06-10T03:31:02.000Z,15.25
2019-06-10T03:32:02.000Z,15.187
2019-06-10T03:33:02.000Z,15.25
2019-06-10T03:34:02.000Z,15.187
2019-06-10T03:35:01.000Z,15.125
2019-06-10T03:36:02.000Z,15.125
2019-06-10T03:36:02.000Z,15.125
2019-06-10T03:37:02.000Z,15.062
2019-06-10T03:38:02.000Z,15.062
2019-06-10T03:39:02.000Z,15.062
2019-06-10T03:40:01.000Z,15
2019-06-10T03:41:01.000Z,14.937
2019-06-10T03:42:01.000Z,14.937
2019-06-10T03:43:01.000Z,14.875
2019-06-10T03:44:01.000Z,14.875
2019-06-10T03:45:01.000Z,14.875
2019-06-10T03:46:01.000Z,14.875
2019-06-10T03:47:01.000Z,14.875
2019-06-10T03:48:01.000Z,14.875
2019-06-10T03:49:01.000Z,14.812
2019-06-10T03:49:02.000Z,14.812
2019-06-10T03:50:01.000Z,14.875
2019-06-10T03:51:01.000Z,14.875
2019-06-10T03:52:01.000Z,14.937
2019-06-10T03:53:02.000Z,15
2019-06-10T03:54:01.000Z,15
2019-06-10T03:55:01.000Z,15
2019-06-10T03:56:02.000Z,15
2019-06-10T03:57:02.000Z,15
2019-06-10T03:58:01.000Z,15
2019-06-10T03:59:02.000Z,14.937
2019-06-10T03:59:02.000Z,14.937
2019-06-10T04:00:01.000Z,14.937
2019-06-10T04:01:01.000Z,15
2019-06-10T04:02:01.000Z,15
2019-06-10T04:03:01.000Z,15
2019-06-10T04:04:01.000Z,15
2019-06-10T04:05:01.000Z,15
2019-06-10T04:06:01.000Z,15.062
2019-06-10T04:07:01.000Z,15.062
2019-06-10T04:08:01.000Z,15
2019-06-10T04:09:02.000Z,15
2019-06-10T04:09:02.000Z,15
2019-06-10T04:10:01.000Z,15
2019-06-10T04:11:01.000Z,15
2019-06-10T04:12:01.000Z,15
2019-06-10T04:13:01.000Z,15.062
2019-06-10T04:14:01.000Z,15.062
2019-06-10T04:15:01.000Z,15.062
2019-06-10T04:16:01.000Z,15.062
2019-06-10T04:17:01.000Z,15.062
2019-06-10T04:18:01.000Z,15.062
2019-06-10T04:19:01.000Z,15.062
2019-06-10T04:20:01.000Z,15.125
2019-06-10T04:21:01.000Z,15.125
2019-06-10T04:21:02.000Z,15.125
2019-06-10T04:22:02.000Z,15.187
2019-06-10T04:23:02.000Z,15.25
2019-06-10T04:24:02.000Z,15.25
2019-06-10T04:25:01.000Z,15.312
2019-06-10T04:26:02.000Z,15.312
2019-06-10T04:27:02.000Z,15.375
2019-06-10T04:28:02.000Z,15.312
2019-06-10T04:29:02.000Z,15.375
2019-06-10T04:30:02.000Z,15.375
2019-06-10T04:31:01.000Z,15.375
2019-06-10T04:32:01.000Z,15.375
2019-06-10T04:33:01.000Z,15.375
2019-06-10T04:34:01.000Z,15.437
2019-06-10T04:35:01.000Z,15.375
2019-06-10T04:35:02.000Z,15.375
2019-06-10T04:36:01.000Z,15.375
2019-06-10T04:37:02.000Z,15.437
2019-06-10T04:38:02.000Z,15.437
2019-06-10T04:39:02.000Z,15.437
2019-06-10T04:40:01.000Z,15.437
2019-06-10T04:41:01.000Z,15.437
2019-06-10T04:42:01.000Z,15.5
2019-06-10T04:43:01.000Z,15.5
2019-06-10T04:44:01.000Z,15.5
2019-06-10T04:45:02.000Z,15.5
2019-06-10T04:46:01.000Z,15.5
2019-06-10T04:47:02.000Z,15.437
2019-06-10T04:48:02.000Z,15.437
2019-06-10T04:48:02.000Z,15.437
2019-06-10T04:49:01.000Z,15.375
2019-06-10T04:50:01.000Z,15.375
2019-06-10T04:51:02.000Z,15.375
2019-06-10T04:52:01.000Z,15.312
2019-06-10T04:53:01.000Z,15.312
2019-06-10T04:54:02.000Z,15.312
2019-06-10T04:55:01.000Z,15.25
2019-06-10T04:56:01.000Z,15.25
2019-06-10T04:57:01.000Z,15.25
2019-06-10T04:58:01.000Z,15.25
2019-06-10T04:59:01.000Z,15.187
2019-06-10T05:00:01.000Z,15.187
2019-06-10T05:01:01.000Z,15.187
2019-06-10T05:02:01.000Z,15.187
2019-06-10T05:02:01.000Z,15.187
2019-06-10T05:03:01.000Z,15.187
2019-06-10T05:04:01.000Z,15.187
2019-06-10T05:05:01.000Z,15.25
2019-06-10T05:06:01.000Z,15.25
2019-06-10T05:07:02.000Z,15.187
2019-06-10T05:08:02.000Z,15.25
2019-06-10T05:09:02.000Z,15.25
2019-06-10T05:10:02.000Z,15.25
2019-06-10T05:11:02.000Z,15.312
2019-06-10T05:12:02.000Z,15.312
2019-06-10T05:12:02.000Z,15.312
2019-06-10T05:13:02.000Z,15.312
2019-06-10T05:14:01.000Z,15.25
2019-06-10T05:15:01.000Z,15.25
2019-06-10T05:16:02.000Z,15.312
2019-06-10T05:17:02.000Z,15.312
2019-06-10T05:18:02.000Z,15.312
2019-06-10T05:19:02.000Z,15.312
2019-06-10T05:20:02.000Z,15.312
2019-06-10T05:20:02.000Z,15.312
2019-06-10T05:21:01.000Z,15.312
2019-06-10T05:22:01.000Z,15.312
2019-06-10T05:23:01.000Z,15.25
2019-06-10T05:24:02.000Z,15.312
2019-06-10T05:25:01.000Z,15.312
2019-06-10T05:26:01.000Z,15.312
2019-06-10T05:27:01.000Z,15.312
2019-06-10T05:28:01.000Z,15.312
2019-06-10T05:29:01.000Z,15.312
2019-06-10T05:30:01.000Z,15.312
2019-06-10T05:31:01.000Z,15.312
2019-06-10T05:32:01.000Z,15.312
2019-06-10T05:33:01.000Z,15.25
2019-06-10T05:34:01.000Z,15.25
2019-06-10T05:34:01.000Z,15.25
2019-06-10T05:35:01.000Z,15.25
2019-06-10T05:36:02.000Z,15.187
2019-06-10T05:37:02.000Z,15.187
2019-06-10T05:38:02.000Z,15.187
2019-06-10T05:39:02.000Z,15.187
2019-06-10T05:40:01.000Z,15.187
2019-06-10T05:41:01.000Z,15.187
2019-06-10T05:42:01.000Z,15.187
2019-06-10T05:43:01.000Z,15.187
2019-06-10T05:44:01.000Z,15.187
2019-06-10T05:45:01.000Z,15.187
2019-06-10T05:46:01.000Z,15.187
2019-06-10T05:47:01.000Z,15.187
2019-06-10T05:48:01.000Z,15.187
2019-06-10T05:48:02.000Z,15.187
2019-06-10T05:49:01.000Z,15.25
2019-06-10T05:50:01.000Z,15.25
2019-06-10T05:51:01.000Z,15.25
2019-06-10T05:52:01.000Z,15.312
2019-06-10T05:53:01.000Z,15.312
2019-06-10T05:54:01.000Z,15.312
2019-06-10T05:55:01.000Z,15.375
2019-06-10T05:56:01.000Z,15.437
2019-06-10T05:57:01.000Z,15.5
2019-06-10T05:58:01.000Z,15.562
2019-06-10T05:59:01.000Z,15.625
2019-06-10T06:00:01.000Z,15.687
2019-06-10T06:01:01.000Z,15.75
2019-06-10T06:01:01.000Z,15.75
2019-06-10T06:02:01.000Z,15.812
2019-06-10T06:03:01.000Z,15.875
2019-06-10T06:04:01.000Z,15.937
2019-06-10T06:05:01.000Z,16.062
2019-06-10T06:06:01.000Z,16.125
2019-06-10T06:07:01.000Z,16.125
2019-06-10T06:08:01.000Z,16.187
2019-06-10T06:09:01.000Z,16.187
2019-06-10T06:10:01.000Z,16.25
2019-06-10T06:11:01.000Z,16.25
2019-06-10T06:12:01.000Z,16.25
2019-06-10T06:13:01.000Z,16.312
2019-06-10T06:14:01.000Z,16.375
2019-06-10T06:15:01.000Z,16.437
2019-06-10T06:15:02.000Z,16.437
2019-06-10T06:16:01.000Z,16.437
2019-06-10T06:17:01.000Z,16.562
2019-06-10T06:18:01.000Z,16.625
2019-06-10T06:19:02.000Z,16.687
2019-06-10T06:20:02.000Z,16.687
2019-06-10T06:21:01.000Z,16.687
2019-06-10T06:22:02.000Z,16.75
2019-06-10T06:23:02.000Z,16.75
2019-06-10T06:24:01.000Z,16.75
2019-06-10T06:24:02.000Z,16.75
2019-06-10T06:25:01.000Z,16.812
2019-06-10T06:26:01.000Z,16.875
2019-06-10T06:27:01.000Z,16.875
2019-06-10T06:28:01.000Z,16.875
2019-06-10T06:29:01.000Z,16.875
2019-06-10T06:30:01.000Z,16.875
2019-06-10T06:31:02.000Z,16.875
2019-06-10T06:32:01.000Z,16.875
2019-06-10T06:32:02.000Z,16.875
2019-06-10T06:33:01.000Z,16.875
2019-06-10T06:34:01.000Z,16.937
2019-06-10T06:35:01.000Z,16.937
2019-06-10T06:36:01.000Z,17
2019-06-10T06:37:01.000Z,17
2019-06-10T06:38:01.000Z,17
2019-06-10T06:39:01.000Z,17
2019-06-10T06:40:01.000Z,17.062
2019-06-10T06:41:01.000Z,17.125
2019-06-10T06:42:02.000Z,17.187
2019-06-10T06:43:01.000Z,17.187
2019-06-10T06:44:01.000Z,17.437
2019-06-10T06:45:01.000Z,17.562
2019-06-10T06:45:02.000Z,17.5
2019-06-10T06:46:01.000Z,17.625
2019-06-10T06:47:01.000Z,17.75
2019-06-10T06:48:02.000Z,17.812
2019-06-10T06:49:01.000Z,17.875
2019-06-10T06:50:01.000Z,17.875
2019-06-10T06:51:01.000Z,17.875
2019-06-10T06:52:02.000Z,17.937
2019-06-10T06:53:02.000Z,17.875
2019-06-10T06:54:01.000Z,17.875
2019-06-10T06:55:01.000Z,17.875
2019-06-10T06:56:02.000Z,17.937
2019-06-10T06:57:02.000Z,18.125
2019-06-10T06:58:01.000Z,18.125
2019-06-10T06:59:01.000Z,18.75
2019-06-10T06:59:01.000Z,18.75
2019-06-10T07:00:01.000Z,19.25
2019-06-10T07:01:02.000Z,19.75
2019-06-10T07:02:01.000Z,20.187
2019-06-10T07:03:02.000Z,20.5
2019-06-10T07:04:02.000Z,20.625
2019-06-10T07:05:01.000Z,20.687
2019-06-10T07:06:01.000Z,20.812
2019-06-10T07:07:01.000Z,20.937
2019-06-10T07:08:01.000Z,21.062
2019-06-10T07:09:01.000Z,21.187
2019-06-10T07:10:01.000Z,21.312
2019-06-10T07:11:02.000Z,21.312
2019-06-10T07:12:01.000Z,21.375
2019-06-10T07:12:01.000Z,21.375
2019-06-10T07:13:01.000Z,21.437
2019-06-10T07:14:01.000Z,21.437
2019-06-10T07:15:01.000Z,21.312
2019-06-10T07:16:01.000Z,21.25
2019-06-10T07:17:01.000Z,21.312
2019-06-10T07:18:01.000Z,21.25
2019-06-10T07:19:01.000Z,21.187
2019-06-10T07:20:01.000Z,21.25
2019-06-10T07:21:02.000Z,21.25
2019-06-10T07:22:02.000Z,21.375
2019-06-10T07:23:01.000Z,21.375
2019-06-10T07:24:01.000Z,21.187
2019-06-10T07:25:01.000Z,21.25
2019-06-10T07:25:02.000Z,21.25
2019-06-10T07:26:02.000Z,21.312
2019-06-10T07:27:01.000Z,21.312
2019-06-10T07:28:01.000Z,21.312
2019-06-10T07:29:02.000Z,21.312
2019-06-10T07:30:01.000Z,21.375
2019-06-10T07:31:02.000Z,21.437
2019-06-10T07:32:01.000Z,21.5
2019-06-10T07:33:01.000Z,21.5
2019-06-10T07:33:01.000Z,21.5
2019-06-10T07:34:01.000Z,21.437
2019-06-10T07:35:01.000Z,21.375
2019-06-10T07:36:01.000Z,21.437
2019-06-10T07:37:01.000Z,21.437
2019-06-10T07:38:02.000Z,21.437
2019-06-10T07:39:01.000Z,21.437
2019-06-10T07:40:01.000Z,21.437
2019-06-10T07:40:01.000Z,21.437
2019-06-10T07:41:02.000Z,21.375
2019-06-10T07:42:02.000Z,21.312
2019-06-10T07:43:02.000Z,21.312
2019-06-10T07:44:02.000Z,21.25
2019-06-10T07:45:01.000Z,21.187
2019-06-10T07:46:02.000Z,21.125
2019-06-10T07:47:02.000Z,21.062
2019-06-10T07:48:02.000Z,21.062
2019-06-10T07:49:01.000Z,20.875
2019-06-10T07:50:01.000Z,20.75
2019-06-10T07:51:01.000Z,20.75
2019-06-10T07:52:01.000Z,20.687
2019-06-10T07:52:01.000Z,20.687
2019-06-10T07:53:01.000Z,20.687
2019-06-10T07:54:02.000Z,20.687
2019-06-10T07:55:02.000Z,20.687
2019-06-10T07:56:02.000Z,20.75
2019-06-10T07:57:02.000Z,20.812
2019-06-10T07:58:02.000Z,20.875
2019-06-10T07:59:02.000Z,20.812
2019-06-10T08:00:01.000Z,20.812
2019-06-10T08:01:02.000Z,20.812
2019-06-10T08:02:02.000Z,20.812
2019-06-10T08:03:02.000Z,20.812
2019-06-10T08:04:01.000Z,20.812
2019-06-10T08:05:01.000Z,20.812
2019-06-10T08:06:01.000Z,20.812
2019-06-10T08:06:02.000Z,20.812
2019-06-10T08:07:01.000Z,20.875
2019-06-10T08:08:01.000Z,21
2019-06-10T08:09:01.000Z,21.125
2019-06-10T08:10:02.000Z,21.25
2019-06-10T08:11:01.000Z,21.375
2019-06-10T08:12:01.000Z,21.5
2019-06-10T08:13:01.000Z,21.562
2019-06-10T08:14:02.000Z,21.687
2019-06-10T08:15:02.000Z,21.812
2019-06-10T08:16:01.000Z,21.875
2019-06-10T08:17:01.000Z,22.125
2019-06-10T08:18:01.000Z,22.25
2019-06-10T08:19:01.000Z,22.375
2019-06-10T08:19:02.000Z,22.375
2019-06-10T08:20:01.000Z,22.437
2019-06-10T08:21:01.000Z,22.437
2019-06-10T08:22:01.000Z,22.5
2019-06-10T08:23:01.000Z,22.562
2019-06-10T08:24:01.000Z,22.812
2019-06-10T08:25:01.000Z,22.937
2019-06-10T08:26:01.000Z,23.187
2019-06-10T08:27:01.000Z,23.25
2019-06-10T08:28:01.000Z,23.312
2019-06-10T08:29:01.000Z,23.375
2019-06-10T08:30:01.000Z,23.437
2019-06-10T08:31:01.000Z,23.5
2019-06-10T08:32:01.000Z,23.562
2019-06-10T08:33:02.000Z,23.687
2019-06-10T08:33:02.000Z,23.687
2019-06-10T08:34:02.000Z,23.812
2019-06-10T08:35:01.000Z,23.75
2019-06-10T08:36:02.000Z,23.625
2019-06-10T08:37:01.000Z,23.75
2019-06-10T08:38:02.000Z,23.75
2019-06-10T08:39:02.000Z,23.812
2019-06-10T08:40:01.000Z,23.687
2019-06-10T08:41:01.000Z,23.75
2019-06-10T08:42:01.000Z,23.812
2019-06-10T08:43:01.000Z,24
2019-06-10T08:43:01.000Z,24
2019-06-10T08:44:02.000Z,24.125
2019-06-10T08:45:02.000Z,24.25
2019-06-10T08:46:02.000Z,24.25
2019-06-10T08:47:02.000Z,24.25
2019-06-10T08:48:02.000Z,24.312
2019-06-10T08:49:02.000Z,24.375
2019-06-10T08:50:02.000Z,24.5
2019-06-10T08:51:01.000Z,24.625
2019-06-10T08:51:02.000Z,24.625
2019-06-10T08:52:01.000Z,24.75
2019-06-10T08:53:01.000Z,24.75
2019-06-10T08:54:01.000Z,24.875
2019-06-10T08:55:01.000Z,24.875
2019-06-10T08:56:01.000Z,24.937
2019-06-10T08:57:01.000Z,25.25
2019-06-10T08:58:01.000Z,25.375
2019-06-10T08:59:02.000Z,25.562
2019-06-10T09:00:01.000Z,25.5
2019-06-10T09:01:02.000Z,25.5
2019-06-10T09:02:01.000Z,25.437
2019-06-10T09:03:01.000Z,25.375
2019-06-10T09:04:01.000Z,25.125
2019-06-10T09:04:02.000Z,25.125
2019-06-10T09:05:01.000Z,25.062
2019-06-10T09:06:01.000Z,25.125
2019-06-10T09:07:01.000Z,25.125
2019-06-10T09:08:02.000Z,25.125
2019-06-10T09:09:02.000Z,25.187
2019-06-10T09:10:01.000Z,25.312
2019-06-10T09:11:01.000Z,25.312
2019-06-10T09:12:01.000Z,25.562
2019-06-10T09:13:01.000Z,25.75
2019-06-10T09:14:02.000Z,25.875
2019-06-10T09:15:02.000Z,25.812
2019-06-10T09:16:01.000Z,25.75
2019-06-10T09:17:02.000Z,25.687
2019-06-10T09:17:02.000Z,25.687
2019-06-10T09:18:01.000Z,25.687
2019-06-10T09:19:01.000Z,25.687
2019-06-10T09:20:01.000Z,25.812
2019-06-10T09:21:01.000Z,25.812
2019-06-10T09:22:01.000Z,26.125
2019-06-10T09:23:01.000Z,26.125
2019-06-10T09:24:01.000Z,26.312
2019-06-10T09:25:01.000Z,26.562
2019-06-10T09:26:01.000Z,26.687
2019-06-10T09:27:01.000Z,26.75
2019-06-10T09:28:01.000Z,26.937
2019-06-10T09:29:02.000Z,26.937
2019-06-10T09:30:02.000Z,26.75
2019-06-10T09:30:02.000Z,26.75
2019-06-10T09:31:01.000Z,26.875
2019-06-10T09:32:01.000Z,27.125
2019-06-10T09:33:01.000Z,27.437
2019-06-10T09:34:01.000Z,27.687
2019-06-10T09:35:01.000Z,28.125
2019-06-10T09:36:01.000Z,28.562
2019-06-10T09:37:01.000Z,29.125
2019-06-10T09:38:01.000Z,29.562
2019-06-10T09:39:01.000Z,30
2019-06-10T09:40:02.000Z,30.187
2019-06-10T09:41:02.000Z,30.562
2019-06-10T09:42:02.000Z,30.375
2019-06-10T09:43:02.000Z,30.25
2019-06-10T09:44:02.000Z,30.312
2019-06-10T09:44:02.000Z,30.312
2019-06-10T09:45:02.000Z,30.562
2019-06-10T09:46:01.000Z,30.562
2019-06-10T09:47:02.000Z,30.75
2019-06-10T09:48:02.000Z,30.5
2019-06-10T09:49:02.000Z,30.375
2019-06-10T09:50:02.000Z,30.187
2019-06-10T09:51:02.000Z,30.5
2019-06-10T09:52:02.000Z,30.875
2019-06-10T09:53:02.000Z,31.312
2019-06-10T09:54:01.000Z,31.562
2019-06-10T09:55:01.000Z,31.687
2019-06-10T09:55:02.000Z,31.687
2019-06-10T09:56:01.000Z,31.75
2019-06-10T09:57:01.000Z,31.687
2019-06-10T09:58:01.000Z,31.937
2019-06-10T09:59:01.000Z,32.25
2019-06-10T10:00:01.000Z,32.5
2019-06-10T10:01:01.000Z,32.312
2019-06-10T10:02:01.000Z,32
2019-06-10T10:03:01.000Z,32.062
2019-06-10T10:03:02.000Z,32.062
2019-06-10T10:04:01.000Z,31.812
2019-06-10T10:05:01.000Z,31.75
2019-06-10T10:06:01.000Z,31.75
2019-06-10T10:07:01.000Z,31.812
2019-06-10T10:08:01.000Z,31.687
2019-06-10T10:09:01.000Z,31.5
2019-06-10T10:10:02.000Z,31.562
2019-06-10T10:11:02.000Z,31.75
2019-06-10T10:12:02.000Z,31.937
2019-06-10T10:13:02.000Z,31.937
2019-06-10T10:14:02.000Z,32.75
2019-06-10T10:15:01.000Z,33.062
2019-06-10T10:16:02.000Z,33.312
2019-06-10T10:17:02.000Z,33.437
2019-06-10T10:17:02.000Z,33.437
2019-06-10T10:18:02.000Z,33.875
2019-06-10T10:19:02.000Z,34.187
2019-06-10T10:20:02.000Z,34.562
2019-06-10T10:21:02.000Z,34.562
2019-06-10T10:22:02.000Z,34.187
2019-06-10T10:23:02.000Z,33.812
2019-06-10T10:24:02.000Z,33.937
2019-06-10T10:25:02.000Z,34.187
2019-06-10T10:26:01.000Z,34.062
2019-06-10T10:27:01.000Z,33.5
2019-06-10T10:28:01.000Z,32.812
2019-06-10T10:29:01.000Z,32.375
2019-06-10T10:30:01.000Z,31.937
2019-06-10T10:30:01.000Z,31.937
2019-06-10T10:31:01.000Z,31.25
2019-06-10T10:32:01.000Z,30.562
2019-06-10T10:33:01.000Z,30
2019-06-10T10:34:01.000Z,29.812
2019-06-10T10:35:01.000Z,29.625
2019-06-10T10:36:02.000Z,29.687
2019-06-10T10:37:02.000Z,29.687
2019-06-10T10:38:02.000Z,29.75
2019-06-10T10:39:02.000Z,29.75
2019-06-10T10:40:01.000Z,29.75
2019-06-10T10:41:01.000Z,29.812
2019-06-10T10:42:01.000Z,29.875
2019-06-10T10:43:01.000Z,30
2019-06-10T10:44:01.000Z,29.937
2019-06-10T10:44:02.000Z,29.937
2019-06-10T10:45:01.000Z,29.875
2019-06-10T10:46:01.000Z,29.75
2019-06-10T10:47:01.000Z,29.75
2019-06-10T10:48:01.000Z,29.562
2019-06-10T10:49:01.000Z,29.375
2019-06-10T10:50:01.000Z,29.187
2019-06-10T10:51:01.000Z,29.062
2019-06-10T10:52:01.000Z,28.937
2019-06-10T10:53:01.000Z,28.812
2019-06-10T10:54:01.000Z,28.812
2019-06-10T10:55:01.000Z,28.812
2019-06-10T10:56:01.000Z,28.812
2019-06-10T10:57:01.000Z,29
2019-06-10T10:57:02.000Z,29
2019-06-10T10:58:01.000Z,29.062
2019-06-10T10:59:01.000Z,29.25
2019-06-10T11:00:01.000Z,29.437
2019-06-10T11:01:01.000Z,29.437
2019-06-10T11:02:01.000Z,29.437
2019-06-10T11:03:01.000Z,29.562
2019-06-10T11:04:01.000Z,29.687
2019-06-10T11:05:01.000Z,29.687
2019-06-10T11:06:02.000Z,29.562
2019-06-10T11:06:02.000Z,29.562
2019-06-10T11:07:02.000Z,29.5
2019-06-10T11:08:02.000Z,29.812
2019-06-10T11:09:02.000Z,29.937
2019-06-10T11:10:01.000Z,30.062
2019-06-10T11:11:01.000Z,30.125
2019-06-10T11:12:01.000Z,29.812
2019-06-10T11:13:01.000Z,29.562
2019-06-10T11:14:01.000Z,29.562
2019-06-10T11:15:01.000Z,29.687
2019-06-10T11:15:01.000Z,29.687
2019-06-10T11:16:01.000Z,29.812
2019-06-10T11:17:02.000Z,29.812
2019-06-10T11:18:02.000Z,29.687
2019-06-10T11:19:02.000Z,29.75
2019-06-10T11:20:02.000Z,30.125
2019-06-10T11:21:02.000Z,30.312
2019-06-10T11:22:01.000Z,30.375
2019-06-10T11:23:01.000Z,30.062
2019-06-10T11:24:01.000Z,29.875
2019-06-10T11:25:01.000Z,29.812
2019-06-10T11:26:02.000Z,29.812
2019-06-10T11:27:01.000Z,29.875
2019-06-10T11:28:01.000Z,29.875
2019-06-10T11:28:01.000Z,29.875
2019-06-10T11:29:01.000Z,30.187
2019-06-10T11:30:02.000Z,30.5
2019-06-10T11:31:02.000Z,30.625
2019-06-10T11:32:02.000Z,30.937
2019-06-10T11:33:02.000Z,31.312
2019-06-10T11:34:02.000Z,31.437
2019-06-10T11:35:02.000Z,31.75
2019-06-10T11:36:02.000Z,31.937
2019-06-10T11:37:02.000Z,32.062
2019-06-10T11:38:02.000Z,32.312
2019-06-10T11:39:02.000Z,32.187
2019-06-10T11:40:01.000Z,32.125
2019-06-10T11:41:02.000Z,32
2019-06-10T11:42:02.000Z,31.75
2019-06-10T11:42:02.000Z,31.75
2019-06-10T11:43:01.000Z,31.625
2019-06-10T11:44:01.000Z,31.562
2019-06-10T11:45:01.000Z,31.625
2019-06-10T11:46:01.000Z,31.062
2019-06-10T11:47:01.000Z,30.625
2019-06-10T11:48:01.000Z,30.437
2019-06-10T11:49:01.000Z,30.437
2019-06-10T11:50:02.000Z,30.5
2019-06-10T11:51:02.000Z,30.625